Riviera Beach, FL (33404)

6:11 PM EDT on September 19, 2014 (GMT -0400)
Singer Ialand | Change Station
CLOSE
Current Station
Personal Weather Station
Location: Singer Island, FL
Elevation: 23 ft
Nearby Weather Stations

Elev 23 ft 26.79 °N, 80.04 °W | Updated 11 minutes ago

Overcast
Overcast
78.4 °F
Feels Like 81 °F
N
2.7
Wind Variable Wind from NNE

Today
High -- | Low -- °F
--% Chance of Precip.
Yesterday
High -- | Low -- °F
Precip. -- in
7:07 AM 7:20 PM
Waning Crescent, 16% visible
Pressure 29.91 in
Visibility 10.0 miles
Clouds Few 3600 ft
Mostly Cloudy 7500 ft
Mostly Cloudy 15000 ft
Heat Index 81 °F
Dew Point 71 °F
Humidity 78%
Rainfall 0.10 in
Snow Depth Not available.
UV 1 out of 12
Pollen 2.40 out of 12
Ozone Good
PM2.5 Good
Flu Activity Not available.
METAR KPBI 192153Z 01005KT 10SM FEW036CB BKN075 BKN150 26/23 A2991 RMK AO2 SLP127 CB S-SW MOV NE CB DSNT ALQDS T02610228

More Conditions Fewer Conditions

Pressure 29.91 in
Visibility 10.0 miles
Clouds Few 3600 ft
Mostly Cloudy 7500 ft
Mostly Cloudy 15000 ft
Heat Index 81 °F
Dew Point 71 °F
Humidity 78%
Rainfall 0.10 in
Snow Depth Not available.
UV 1 out of 12
Pollen 2.40 out of 12
Ozone Good
PM2.5 Good
Flu Activity Not available.
METAR KPBI 192153Z 01005KT 10SM FEW036CB BKN075 BKN150 26/23 A2991 RMK AO2 SLP127 CB S-SW MOV NE CB DSNT ALQDS T02610228

More Conditions Fewer Conditions

10-Day Weather Forecast

Almanac

Astronomy

Sep. 19, 2014 Rise Set
Actual Time 7:07 AM EDT 7:20 PM EDT
Civil Twilight 6:44 AM EDT 7:43 PM EDT
Nautical Twilight 6:17 AM EDT 8:10 PM EDT
Astronomical Twilight 5:50 AM EDT 8:37 PM EDT
Moon 3:09 AM EDT 4:31 PM EDT
Length of Visible Light 12h 58m
Length of Day
12h 12m
Tomorrow will be 1m 35s shorter.
Waning Crescent, 16% of the Moon is Illuminated
Today
Waning Crescent
Sep 24
New
Oct 1
First Quarter
Oct 8
Full
Oct 15
Last Quarter

Today's Extremes

State Highs State Lows

Community

WunderPhotos

Upload Photos

1,754,719 photos uploaded!

WunderBlogs® & News

Nearby

Air Quality

  Air Quality AQ Index Pollutant
Yesterday Good
OZONE
Yesterday Good
PM2.5
Current Good
OZONE
Current Good
PM2.5
Friday Good
OZONE
Friday Good
PM2.5
Saturday Good
OZONE
Saturday Good
PM2.5
Sunday Good
OZONE
Sunday Good
PM2.5
Monday Good
OZONE
Monday Good
PM2.5

Snow Depth

Station Depth Elevation
No new snow has been reported.

Earthquake Activity

City Distance Mag. Time & Date
No recent earthquake activity has been reported nearby.
Minimum magnitude displayed is 2.5.

Coastal Water Temperatures

Place Temperature
Lake Worth, FL 84.9 °F
Virginia Key, FL 84.9 °F

Nearby Weather Stations